Time;durP1;ratioP1;P1;durP2;ratioP2;P2;SDS_P1;SDS_P2;PMS_P1;PMS_P2;Temp;Humidity;BMP_temperature;BMP_pressure;BME280_temperature;BME280_humidity;BME280_pressure;Samples;Min_cycle;Max_cycle;Signal;HPM_P1;HPM_P2
2022/07/01 00:02:08;;;;;;;;;;;;;;;21.78;58.00;97723.72;5117969;27;19959;-71
2022/07/01 00:04:38;;;;;;;;;;;;;;;21.69;58.61;97731.63;5101746;28;20030;-73
2022/07/01 00:07:27;;;;;;;;;;;;;;;21.67;58.68;97731.19;5101399;27;19942;-67
2022/07/01 00:09:55;;;;;;;;;;;;;;;21.63;58.80;97727.66;5113282;27;20065;-68
2022/07/01 00:12:23;;;;;;;;;;;;;;;21.57;59.07;97735.53;5105125;28;20052;-66
2022/07/01 00:14:52;;;;;;;;;;;;;;;21.56;59.36;97728.38;5107248;28;19920;-70
2022/07/01 00:17:20;;;;;;;;;;;;;;;21.49;59.47;97735.88;5108462;27;19978;-71
2022/07/01 00:19:50;;;;;;;;;;;;;;;21.52;59.37;97735.06;5107823;28;20275;-70
2022/07/01 00:22:18;;;;;;;;;;;;;;;21.53;59.52;97745.75;5102674;27;19920;-69
2022/07/01 00:24:48;;;;;;;;;;;;;;;21.54;59.51;97746.56;5101356;28;20060;-69
2022/07/01 00:27:16;;;;;;;;;;;;;;;21.45;59.71;97744.91;5106663;28;20311;-70
2022/07/01 00:29:48;;;;;;;;;;;;;;;21.44;59.76;97743.34;5101494;28;19957;-70
2022/07/01 00:32:16;;;;;;;;;;;;;;;21.42;59.73;97754.00;5102546;28;19919;-70
2022/07/01 00:34:44;;;;;;;;;;;;;;;21.49;59.54;97749.69;5104529;28;19920;-69
2022/07/01 00:37:14;;;;;;;;;;;;;;;21.48;59.61;97742.56;5106956;28;20190;-69
2022/07/01 00:39:42;;;;;;;;;;;;;;;21.42;59.61;97739.41;5106437;28;20007;-65
2022/07/01 00:42:10;;;;;;;;;;;;;;;21.31;59.74;97738.53;5102615;27;19962;-59
2022/07/01 00:44:38;;;;;;;;;;;;;;;21.12;59.94;97747.84;5113732;27;19939;-66
2022/07/01 00:47:09;;;;;;;;;;;;;;;21.15;59.80;97758.16;5105906;28;20052;-71
2022/07/01 00:49:37;;;;;;;;;;;;;;;21.00;60.10;97768.31;5090154;28;19928;-70
2022/07/01 00:52:06;;;;;;;;;;;;;;;20.93;60.41;97785.63;5102353;27;19926;-69
2022/07/01 00:54:36;;;;;;;;;;;;;;;20.95;60.46;97793.50;5105825;28;20415;-71
2022/07/01 00:57:07;;;;;;;;;;;;;;;20.89;60.74;97812.41;5092215;28;19981;-71
2022/07/01 00:59:35;;;;;;;;;;;;;;;20.87;60.77;97831.31;5091948;28;19927;-64
2022/07/01 01:02:04;;;;;;;;;;;;;;;20.85;60.79;97822.63;5103888;27;20019;-69
2022/07/01 01:04:32;;;;;;;;;;;;;;;20.85;60.78;97808.03;5101487;28;20010;-70
2022/07/01 01:07:02;;;;;;;;;;;;;;;20.71;60.58;97803.16;5108945;27;19933;-69
2022/07/01 01:09:30;;;;;;;;;;;;;;;20.63;60.58;97809.81;5101378;28;19928;-68
2022/07/01 01:12:00;;;;;;;;;;;;;;;20.58;60.30;97829.47;5105712;27;19995;-68
2022/07/01 01:14:28;;;;;;;;;;;;;;;20.36;60.28;97825.66;5084099;28;19984;-69
2022/07/01 01:19:48;;;;;;;;;;;;;;;20.29;60.75;97818.09;5090416;27;20348;-70
2022/07/01 01:22:18;;;;;;;;;;;;;;;20.36;60.58;97828.44;5096429;27;19931;-70
2022/07/01 01:24:47;;;;;;;;;;;;;;;20.24;60.97;97826.72;5096572;27;19923;-70
2022/07/01 01:27:16;;;;;;;;;;;;;;;20.10;60.99;97815.53;5099993;27;20273;-70
2022/07/01 01:29:43;;;;;;;;;;;;;;;20.12;60.82;97811.19;5100515;27;19951;-66
2022/07/01 01:32:12;;;;;;;;;;;;;;;19.82;61.05;97794.72;5108767;27;19966;-68
2022/07/01 01:34:40;;;;;;;;;;;;;;;19.84;60.98;97797.88;5099920;27;19920;-68
2022/07/01 01:37:09;;;;;;;;;;;;;;;19.80;61.11;97807.28;5106556;27;19920;-71
2022/07/01 01:39:38;;;;;;;;;;;;;;;19.82;60.73;97802.19;5107691;27;19958;-72
2022/07/01 01:42:06;;;;;;;;;;;;;;;19.48;61.62;97784.78;5103041;28;19960;-72
2022/07/01 01:44:37;;;;;;;;;;;;;;;19.46;61.78;97790.66;5093478;27;19932;-70
2022/07/01 01:47:05;;;;;;;;;;;;;;;19.34;62.08;97805.47;5101714;27;19958;-70
2022/07/01 01:49:33;;;;;;;;;;;;;;;19.28;62.33;97811.63;5090335;27;20027;-70
2022/07/01 01:52:01;;;;;;;;;;;;;;;19.30;62.37;97818.38;5094935;27;20359;-70
2022/07/01 01:54:29;;;;;;;;;;;;;;;19.35;62.35;97818.06;5096143;27;19923;-65
2022/07/01 01:56:59;;;;;;;;;;;;;;;19.44;61.93;97828.00;5098192;27;19999;-71
2022/07/01 01:59:27;;;;;;;;;;;;;;;19.41;61.64;97826.81;5108789;28;19972;-68
2022/07/01 02:01:55;;;;;;;;;;;;;;;19.34;61.86;97849.53;5104892;28;19920;-68
2022/07/01 02:04:23;;;;;;;;;;;;;;;19.22;62.03;97849.72;5105136;28;20312;-59
2022/07/01 02:06:52;;;;;;;;;;;;;;;19.28;61.92;97852.94;5097142;28;19920;-72
2022/07/01 02:09:20;;;;;;;;;;;;;;;19.19;62.10;97860.69;5100832;28;19935;-63
2022/07/01 02:11:48;;;;;;;;;;;;;;;19.15;62.30;97868.09;5096991;28;20011;-66
2022/07/01 02:14:17;;;;;;;;;;;;;;;19.05;62.54;97867.53;5102754;28;19988;-65
2022/07/01 02:16:55;;;;;;;;;;;;;;;19.10;62.29;97875.50;5105454;28;19920;-66
2022/07/01 02:19:24;;;;;;;;;;;;;;;19.10;62.40;97880.22;5086599;28;19997;-70
2022/07/01 02:21:52;;;;;;;;;;;;;;;19.14;62.17;97883.03;5104253;28;19979;-70
2022/07/01 02:24:21;;;;;;;;;;;;;;;19.18;62.13;97886.66;5097988;28;20328;-69
2022/07/01 02:26:49;;;;;;;;;;;;;;;19.02;62.10;97884.03;5100285;28;19993;-66
2022/07/01 02:29:19;;;;;;;;;;;;;;;18.90;62.50;97896.00;5108515;28;20336;-69
2022/07/01 02:31:47;;;;;;;;;;;;;;;18.81;62.70;97895.47;5100483;28;19996;-71
2022/07/01 02:34:15;;;;;;;;;;;;;;;18.78;62.58;97869.44;5097180;27;19928;-71
2022/07/01 02:36:43;;;;;;;;;;;;;;;18.88;62.26;97861.75;5102593;28;20042;-69
2022/07/01 02:39:11;;;;;;;;;;;;;;;18.84;62.34;97862.47;5096049;28;19952;-69
2022/07/01 02:44:23;;;;;;;;;;;;;;;18.72;62.58;97861.88;5103558;28;19930;-69
2022/07/01 02:46:51;;;;;;;;;;;;;;;18.65;62.76;97857.00;5089474;28;19927;-69
2022/07/01 02:49:19;;;;;;;;;;;;;;;18.35;63.64;97858.78;5098338;28;19924;-68
2022/07/01 02:51:47;;;;;;;;;;;;;;;18.28;63.82;97862.19;5100604;28;19951;-67
2022/07/01 02:54:16;;;;;;;;;;;;;;;18.26;64.04;97872.75;5088749;28;19924;-64
2022/07/01 02:56:44;;;;;;;;;;;;;;;18.30;63.94;97874.41;5097256;28;20466;-70
2022/07/01 02:59:12;;;;;;;;;;;;;;;18.26;64.52;97870.00;5105263;28;19926;-69
2022/07/01 03:01:41;;;;;;;;;;;;;;;18.32;64.72;97879.53;5097581;28;19920;-66
2022/07/01 03:04:16;;;;;;;;;;;;;;;18.37;64.95;97883.97;5095471;28;19951;-69
2022/07/01 03:06:46;;;;;;;;;;;;;;;18.28;65.02;97882.25;5098318;28;20332;-66
2022/07/01 03:09:14;;;;;;;;;;;;;;;18.22;65.08;97888.41;5103404;28;19920;-67
2022/07/01 03:11:42;;;;;;;;;;;;;;;18.23;64.99;97882.53;5095847;28;20714;-67
2022/07/01 03:14:11;;;;;;;;;;;;;;;18.21;64.88;97879.34;5108178;28;19988;-65
2022/07/01 03:16:39;;;;;;;;;;;;;;;18.25;64.72;97874.72;5095969;28;20031;-60
2022/07/01 03:19:09;;;;;;;;;;;;;;;18.26;64.51;97870.78;5104005;27;19923;-63
2022/07/01 03:21:37;;;;;;;;;;;;;;;18.23;64.45;97868.78;5096553;27;19928;-68
2022/07/01 03:24:05;;;;;;;;;;;;;;;18.22;64.33;97869.16;5111065;27;19954;-67
2022/07/01 03:26:33;;;;;;;;;;;;;;;18.18;64.41;97868.28;5104724;28;20352;-67
2022/07/01 03:29:05;;;;;;;;;;;;;;;18.11;64.57;97863.44;5090303;28;19946;-67
2022/07/01 03:31:34;;;;;;;;;;;;;;;18.14;65.37;97859.94;5114032;27;20018;-68
2022/07/01 03:34:03;;;;;;;;;;;;;;;18.14;65.38;97859.94;5104450;27;19931;-66
2022/07/01 03:36:56;;;;;;;;;;;;;;;18.02;65.75;97871.09;5107581;27;19924;-67
2022/07/01 03:39:25;;;;;;;;;;;;;;;18.04;65.52;97877.03;5099341;28;20161;-61
2022/07/01 03:41:53;;;;;;;;;;;;;;;18.01;65.62;97881.31;5097436;27;20354;-62
2022/07/01 03:44:21;;;;;;;;;;;;;;;18.00;65.51;97876.16;5108253;28;19985;-68
2022/07/01 03:46:49;;;;;;;;;;;;;;;18.00;65.54;97878.91;5099167;27;19996;-67
2022/07/01 03:49:18;;;;;;;;;;;;;;;17.94;65.56;97885.84;5098673;27;19921;-63
2022/07/01 03:51:46;;;;;;;;;;;;;;;18.03;65.32;97889.97;5106608;27;19924;-68
2022/07/01 03:54:32;;;;;;;;;;;;;;;18.05;65.43;97897.84;5099639;27;19920;-66
2022/07/01 03:57:03;;;;;;;;;;;;;;;18.09;65.25;97915.22;5114423;27;20038;-67
2022/07/01 03:59:32;;;;;;;;;;;;;;;18.06;65.22;97932.47;5113115;27;20310;-67
2022/07/01 04:02:00;;;;;;;;;;;;;;;18.00;65.30;97947.63;5107555;27;19936;-59
2022/07/01 04:04:28;;;;;;;;;;;;;;;18.00;65.22;97955.84;5108940;27;19931;-67
2022/07/01 04:06:58;;;;;;;;;;;;;;;17.97;65.58;97962.09;5106636;28;19966;-59
2022/07/01 04:09:26;;;;;;;;;;;;;;;17.95;65.93;97969.88;5105620;27;20407;-66
2022/07/01 04:11:54;;;;;;;;;;;;;;;17.91;66.21;97969.81;5104632;27;19924;-66
2022/07/01 04:14:25;;;;;;;;;;;;;;;17.91;66.36;97960.78;5106773;27;19919;-67
2022/07/01 04:16:53;;;;;;;;;;;;;;;17.73;66.97;97949.38;5106504;28;20374;-55
2022/07/01 04:19:45;;;;;;;;;;;;;;;17.74;67.80;97965.50;5085154;28;19920;-67
2022/07/01 04:24:58;;;;;;;;;;;;;;;17.78;69.71;97954.59;5103959;27;19919;-64
2022/07/01 04:27:26;;;;;;;;;;;;;;;17.55;69.93;97957.97;5106912;27;19924;-66
2022/07/01 04:29:56;;;;;;;;;;;;;;;17.45;71.39;97946.72;5097352;28;20006;-66
2022/07/01 04:32:25;;;;;;;;;;;;;;;17.41;72.29;97941.13;5104241;27;19928;-65
2022/07/01 04:34:53;;;;;;;;;;;;;;;17.34;73.26;97956.66;5102889;27;20014;-57
2022/07/01 04:37:22;;;;;;;;;;;;;;;17.33;73.91;97963.28;5097841;27;19930;-62
2022/07/01 04:39:50;;;;;;;;;;;;;;;17.19;73.08;97961.75;5103071;27;20014;-61
2022/07/01 04:42:20;;;;;;;;;;;;;;;17.04;74.04;97932.34;5100612;28;19966;-59
2022/07/01 04:44:48;;;;;;;;;;;;;;;17.08;74.00;97908.53;5103801;27;20263;-64
2022/07/01 04:47:18;;;;;;;;;;;;;;;17.10;74.69;97895.28;5099799;28;19972;-63
2022/07/01 04:49:46;;;;;;;;;;;;;;;16.87;75.34;97899.78;5101149;28;19992;-64
2022/07/01 04:52:14;;;;;;;;;;;;;;;16.89;75.95;97916.69;5098411;28;19928;-63
2022/07/01 04:54:42;;;;;;;;;;;;;;;16.86;76.70;97928.38;5110070;27;20341;-63
2022/07/01 04:57:10;;;;;;;;;;;;;;;16.82;76.09;97944.72;5096578;28;19924;-63
2022/07/01 04:59:38;;;;;;;;;;;;;;;16.92;76.08;97952.44;5104982;28;20019;-64
2022/07/01 05:02:06;;;;;;;;;;;;;;;16.90;76.01;97942.97;5096949;28;19931;-64
2022/07/01 05:04:41;;;;;;;;;;;;;;;16.75;75.92;97934.38;5110164;27;19966;-64
2022/07/01 05:07:27;;;;;;;;;;;;;;;16.61;76.43;97953.13;5101406;27;19954;-54
2022/07/01 05:09:56;;;;;;;;;;;;;;;16.78;76.30;97963.06;5112295;27;19927;-63
2022/07/01 05:12:24;;;;;;;;;;;;;;;16.75;75.67;97971.97;5102552;27;20010;-60
2022/07/01 05:14:53;;;;;;;;;;;;;;;16.75;76.73;97977.47;5102153;28;19991;-55
2022/07/01 05:21:55;;;;;;;;;;;;;;;16.77;75.79;97988.88;5095800;27;19928;-62
2022/07/01 05:22:59;;;;;;;;;;;;;;;16.85;75.45;97976.16;5096751;28;19924;-64
2022/07/01 05:25:32;;;;;;;;;;;;;;;16.69;74.17;97982.38;5101996;27;19923;-62
2022/07/01 05:28:00;;;;;;;;;;;;;;;16.81;75.73;97983.50;5102896;28;19948;-63
2022/07/01 05:30:28;;;;;;;;;;;;;;;16.75;75.68;97991.97;5095516;28;19920;-63
2022/07/01 05:33:21;;;;;;;;;;;;;;;16.71;75.85;97991.06;5095726;28;19919;-62
2022/07/01 05:35:51;;;;;;;;;;;;;;;16.81;76.26;98005.44;5097353;28;20022;-62
2022/07/01 05:38:20;;;;;;;;;;;;;;;16.78;75.49;98015.19;5100973;28;19924;-64
2022/07/01 05:40:48;;;;;;;;;;;;;;;16.66;74.75;98028.91;5099253;28;19920;-62
2022/07/01 05:43:16;;;;;;;;;;;;;;;16.65;75.28;98030.06;5092278;28;19931;-64
2022/07/01 05:45:44;;;;;;;;;;;;;;;16.65;75.13;98035.53;5099840;28;19920;-63
2022/07/01 05:51:10;;;;;;;;;;;;;;;16.52;74.62;98056.72;5096020;28;19919;-63
2022/07/01 05:53:38;;;;;;;;;;;;;;;16.46;75.08;98042.47;5102127;27;20231;-63
2022/07/01 05:56:10;;;;;;;;;;;;;;;16.56;75.65;98048.59;5101195;27;19932;-61
2022/07/01 05:58:38;;;;;;;;;;;;;;;16.40;74.24;98049.31;5094900;27;19927;-63
2022/07/01 06:01:09;;;;;;;;;;;;;;;16.32;75.17;98061.22;5105313;28;19920;-61
2022/07/01 06:03:37;;;;;;;;;;;;;;;16.35;75.12;98062.44;5096090;27;19924;-63
2022/07/01 06:06:08;;;;;;;;;;;;;;;16.31;75.02;98058.81;5094321;27;19920;-59
2022/07/01 06:08:37;;;;;;;;;;;;;;;16.08;74.45;98048.31;5099862;28;19924;-63
2022/07/01 06:11:09;;;;;;;;;;;;;;;16.13;74.85;98056.31;5093220;28;20350;-63
2022/07/01 06:13:37;;;;;;;;;;;;;;;16.03;74.58;98056.78;5102727;28;20026;-61
2022/07/01 06:16:08;;;;;;;;;;;;;;;16.12;75.42;98053.91;5102503;28;19920;-63
2022/07/01 06:18:36;;;;;;;;;;;;;;;16.18;75.60;98072.53;5094116;28;19920;-62
2022/07/01 06:21:11;;;;;;;;;;;;;;;16.06;74.82;98071.75;5113833;28;19969;-62
2022/07/01 06:23:41;;;;;;;;;;;;;;;15.99;76.00;98064.09;5105840;28;19923;-63
2022/07/01 06:26:09;;;;;;;;;;;;;;;15.91;75.74;98056.78;5103287;28;19943;-63
2022/07/01 06:28:37;;;;;;;;;;;;;;;15.98;76.22;98063.31;5098074;28;20023;-64
2022/07/01 06:31:08;;;;;;;;;;;;;;;15.93;75.68;98055.31;5103394;28;20015;-63
2022/07/01 06:33:36;;;;;;;;;;;;;;;16.03;75.79;98059.50;5099996;28;20322;-64
2022/07/01 06:36:13;;;;;;;;;;;;;;;16.14;75.80;98066.16;5096933;28;19923;-62
2022/07/01 06:39:07;;;;;;;;;;;;;;;16.18;75.06;98064.31;5099541;28;19979;-62
2022/07/01 06:41:40;;;;;;;;;;;;;;;15.99;75.09;98064.09;5099133;28;20039;-64
2022/07/01 06:44:08;;;;;;;;;;;;;;;15.95;74.54;98063.19;5095608;28;19923;-59
2022/07/01 06:46:38;;;;;;;;;;;;;;;15.93;74.96;98062.75;5092667;28;20030;-62
2022/07/01 06:49:06;;;;;;;;;;;;;;;15.98;74.56;98079.75;5097973;28;20023;-62
2022/07/01 06:51:38;;;;;;;;;;;;;;;15.97;74.62;98074.59;5096157;28;19930;-62
2022/07/01 06:54:08;;;;;;;;;;;;;;;16.08;74.96;98083.94;5103063;28;19920;-62
2022/07/01 06:56:38;;;;;;;;;;;;;;;16.02;74.20;98090.81;5102122;27;19919;-63
2022/07/01 06:59:10;;;;;;;;;;;;;;;15.92;74.42;98085.78;5113328;27;19976;-64
2022/07/01 07:01:39;;;;;;;;;;;;;;;15.96;74.34;98094.91;5109070;28;19962;-63
2022/07/01 07:04:09;;;;;;;;;;;;;;;16.01;74.18;98102.13;5107351;28;20052;-65
2022/07/01 07:09:29;;;;;;;;;;;;;;;15.92;73.77;98096.72;5099821;27;20327;-63
2022/07/01 07:11:58;;;;;;;;;;;;;;;15.92;73.89;98107.69;5105532;27;20047;-63
2022/07/01 07:14:27;;;;;;;;;;;;;;;15.92;73.30;98107.69;5109332;27;20018;-63
2022/07/01 07:17:20;;;;;;;;;;;;;;;16.03;74.08;98108.84;5112518;27;19919;-61
2022/07/01 07:19:49;;;;;;;;;;;;;;;16.07;74.21;98104.28;5105192;27;19926;-64
2022/07/01 07:22:18;;;;;;;;;;;;;;;16.11;73.47;98116.16;5109154;28;19978;-64
2022/07/01 07:24:47;;;;;;;;;;;;;;;16.14;73.55;98114.66;5085905;27;19924;-65
2022/07/01 07:27:17;;;;;;;;;;;;;;;16.16;73.31;98135.13;5109234;28;20007;-64
2022/07/01 07:29:46;;;;;;;;;;;;;;;15.97;72.41;98121.97;5108787;28;20018;-62
2022/07/01 07:32:14;;;;;;;;;;;;;;;15.97;72.47;98121.97;5108146;28;20060;-65
2022/07/01 07:34:43;;;;;;;;;;;;;;;16.13;72.80;98138.53;5107047;28;19924;-64
2022/07/01 07:37:11;;;;;;;;;;;;;;;16.05;73.32;98144.94;5103515;28;19970;-65
2022/07/01 07:39:40;;;;;;;;;;;;;;;16.04;73.40;98143.34;5102299;27;20332;-65
2022/07/01 07:42:08;;;;;;;;;;;;;;;15.90;72.56;98146.41;5105447;27;20045;-63
2022/07/01 07:44:36;;;;;;;;;;;;;;;15.79;73.05;98149.94;5113130;27;19920;-64
2022/07/01 07:47:05;;;;;;;;;;;;;;;15.58;73.14;98142.53;5103893;28;19958;-64
2022/07/01 07:49:34;;;;;;;;;;;;;;;15.51;73.47;98142.31;5106260;27;19919;-65
2022/07/01 07:52:02;;;;;;;;;;;;;;;15.50;73.63;98139.88;5101176;27;19920;-62
2022/07/01 07:54:29;;;;;;;;;;;;;;;15.60;73.25;98144.94;5111626;27;20291;-65
2022/07/01 07:56:58;;;;;;;;;;;;;;;15.62;72.18;98148.16;5106787;27;20328;-63
2022/07/01 07:59:26;;;;;;;;;;;;;;;15.50;73.16;98143.44;5107216;27;20010;-64
2022/07/01 08:01:54;;;;;;;;;;;;;;;15.48;72.30;98150.38;5104095;28;19920;-64
2022/07/01 08:04:23;;;;;;;;;;;;;;;15.43;72.78;98154.13;5105372;27;19924;-63
2022/07/01 08:06:53;;;;;;;;;;;;;;;15.43;73.20;98146.72;5104430;27;20011;-62
2022/07/01 08:09:21;;;;;;;;;;;;;;;15.42;72.80;98160.75;5097573;28;19963;-62
2022/07/01 08:11:52;;;;;;;;;;;;;;;15.44;72.44;98151.03;5104420;28;19928;-64
2022/07/01 08:14:21;;;;;;;;;;;;;;;15.46;72.81;98164.41;5098051;27;19923;-64
2022/07/01 08:16:51;;;;;;;;;;;;;;;15.50;72.87;98170.81;5103903;28;19923;-64
2022/07/01 08:19:19;;;;;;;;;;;;;;;15.57;73.11;98165.59;5102726;27;20357;-63
2022/07/01 08:21:49;;;;;;;;;;;;;;;15.64;72.94;98179.56;5108900;27;19952;-63
2022/07/01 08:24:17;;;;;;;;;;;;;;;15.59;73.08;98177.00;5107041;27;19924;-64
2022/07/01 08:26:45;;;;;;;;;;;;;;;15.62;73.26;98181.81;5106849;27;19964;-63
2022/07/01 08:29:13;;;;;;;;;;;;;;;15.71;72.93;98177.09;5109353;27;20372;-63
2022/07/01 08:31:41;;;;;;;;;;;;;;;15.87;72.36;98181.88;5111130;27;19923;-64
2022/07/01 08:34:15;;;;;;;;;;;;;;;15.82;73.58;98182.09;5106263;27;20405;-61
2022/07/01 08:37:08;;;;;;;;;;;;;;;15.63;72.49;98183.44;5104830;27;19963;-63
2022/07/01 08:39:38;;;;;;;;;;;;;;;15.59;72.84;98179.72;5100792;27;20386;-65
2022/07/01 08:42:06;;;;;;;;;;;;;;;15.42;72.79;98185.38;5101559;28;19966;-63
2022/07/01 08:44:35;;;;;;;;;;;;;;;15.58;73.68;98200.03;5107611;27;19994;-65
2022/07/01 08:47:03;;;;;;;;;;;;;;;15.51;73.21;98197.06;5082829;28;19924;-63
2022/07/01 08:49:31;;;;;;;;;;;;;;;15.60;73.26;98211.44;5108593;27;19992;-63
2022/07/01 08:51:59;;;;;;;;;;;;;;;15.66;73.47;98209.38;5105610;28;19934;-63
2022/07/01 08:54:27;;;;;;;;;;;;;;;15.65;72.89;98224.97;5111512;27;19920;-63
2022/07/01 08:56:57;;;;;;;;;;;;;;;15.57;73.84;98223.09;5107359;28;19950;-62
2022/07/01 08:59:25;;;;;;;;;;;;;;;15.45;72.76;98225.78;5103871;27;19923;-64
2022/07/01 09:01:57;;;;;;;;;;;;;;;15.54;72.82;98215.53;5105850;27;20404;-64
2022/07/01 09:04:25;;;;;;;;;;;;;;;15.50;73.72;98228.31;5106066;28;19926;-60
2022/07/01 09:07:00;;;;;;;;;;;;;;;15.42;72.92;98226.44;5104155;28;20010;-58
2022/07/01 09:09:28;;;;;;;;;;;;;;;15.49;73.54;98234.91;5103713;27;19949;-63
2022/07/01 09:11:58;;;;;;;;;;;;;;;15.44;73.60;98229.66;5102483;27;19924;-64
2022/07/01 09:14:27;;;;;;;;;;;;;;;15.42;73.89;98235.47;5096041;27;19955;-64
2022/07/01 09:17:21;;;;;;;;;;;;;;;15.50;73.78;98239.28;5087847;28;19963;-64
2022/07/01 09:19:50;;;;;;;;;;;;;;;15.55;74.39;98252.75;5103724;28;20390;-63
2022/07/01 09:22:18;;;;;;;;;;;;;;;15.65;73.95;98257.84;5108311;27;19919;-63
2022/07/01 09:24:46;;;;;;;;;;;;;;;15.63;74.21;98254.66;5103922;27;19928;-63
2022/07/01 09:27:17;;;;;;;;;;;;;;;15.63;74.69;98257.38;5098758;27;19924;-63
2022/07/01 09:29:45;;;;;;;;;;;;;;;15.66;73.58;98259.47;5104856;28;19946;-62
2022/07/01 09:32:15;;;;;;;;;;;;;;;15.73;74.24;98258.13;5107002;27;20358;-64
2022/07/01 09:34:44;;;;;;;;;;;;;;;15.69;73.87;98260.72;5104666;27;19924;-63
2022/07/01 09:37:13;;;;;;;;;;;;;;;15.57;73.94;98272.38;5104497;27;19931;-62
2022/07/01 09:39:48;;;;;;;;;;;;;;;15.47;73.44;98264.59;5103375;27;19965;-63
2022/07/01 09:42:19;;;;;;;;;;;;;;;15.54;73.88;98261.28;5101663;28;19920;-63
2022/07/01 09:44:54;;;;;;;;;;;;;;;15.56;73.49;98259.03;5088345;28;19968;-62
2022/07/01 09:47:27;;;;;;;;;;;;;;;15.50;73.62;98269.41;5105439;28;20236;-63
2022/07/01 09:49:55;;;;;;;;;;;;;;;15.47;73.61;98267.31;5102168;27;20363;-62
2022/07/01 09:52:24;;;;;;;;;;;;;;;15.52;73.51;98258.09;5099199;28;19920;-63
2022/07/01 09:54:52;;;;;;;;;;;;;;;15.48;73.34;98263.44;5117765;27;19926;-62
2022/07/01 09:57:22;;;;;;;;;;;;;;;15.46;74.13;98266.53;5107872;27;19924;-62
2022/07/01 09:59:52;;;;;;;;;;;;;;;15.48;74.39;98266.19;5106948;28;19923;-62
2022/07/01 10:02:21;;;;;;;;;;;;;;;15.45;73.75;98255.91;5109890;27;19989;-63
2022/07/01 10:04:50;;;;;;;;;;;;;;;15.44;73.42;98240.59;5115040;27;20022;-63
2022/07/01 10:07:43;;;;;;;;;;;;;;;15.37;74.09;98245.81;5103750;28;20360;-60
2022/07/01 10:10:16;;;;;;;;;;;;;;;15.60;73.52;98249.00;5085245;28;20367;-63
2022/07/01 10:12:46;;;;;;;;;;;;;;;15.57;73.03;98247.75;5103045;28;20236;-63
2022/07/01 10:15:16;;;;;;;;;;;;;;;15.54;72.47;98250.34;5100902;28;19920;-56
2022/07/01 10:17:45;;;;;;;;;;;;;;;15.56;72.40;98254.38;5100780;27;19970;-63
2022/07/01 10:20:14;;;;;;;;;;;;;;;15.55;71.87;98252.75;5105944;28;19931;-62
2022/07/01 10:22:46;;;;;;;;;;;;;;;15.62;72.88;98253.03;5072466;28;19931;-58
2022/07/01 10:28:45;;;;;;;;;;;;;;;15.85;70.92;98255.41;5111275;28;19962;-63
2022/07/01 10:31:15;;;;;;;;;;;;;;;15.88;71.23;98272.00;5108638;28;19939;-63
2022/07/01 10:33:45;;;;;;;;;;;;;;;15.87;71.11;98275.03;5109299;28;20350;-63
2022/07/01 10:36:16;;;;;;;;;;;;;;;15.84;71.20;98271.06;5101273;27;20295;-64
2022/07/01 10:39:10;;;;;;;;;;;;;;;15.87;70.48;98269.56;5101472;28;20262;-63
2022/07/01 10:41:58;;;;;;;;;;;;;;;15.77;71.32;98264.53;5105737;28;20297;-63
2022/07/01 10:45:04;;;;;;;;;;;;;;;15.79;70.78;98273.19;5108041;28;19926;-65
2022/07/01 10:47:32;;;;;;;;;;;;;;;15.84;71.48;98283.94;5102762;27;19920;-64
2022/07/01 10:50:04;;;;;;;;;;;;;;;15.90;70.90;98285.34;5106629;27;19934;-63
2022/07/01 10:52:33;;;;;;;;;;;;;;;15.95;70.91;98294.16;5103735;27;19920;-64
2022/07/01 10:55:02;;;;;;;;;;;;;;;15.84;70.66;98301.19;5114147;27;19979;-63
2022/07/01 10:57:32;;;;;;;;;;;;;;;15.85;70.74;98313.75;5108023;28;19935;-63
2022/07/01 11:00:33;;;;;;;;;;;;;;;15.88;70.75;98320.50;5111547;27;19926;-62
2022/07/01 11:03:18;;;;;;;;;;;;;;;15.90;71.13;98334.66;5046222;28;20389;-57
2022/07/01 11:05:52;;;;;;;;;;;;;;;15.85;70.98;98337.59;5101631;28;20272;-64
2022/07/01 11:08:20;;;;;;;;;;;;;;;15.76;70.82;98329.44;5119504;27;19931;-64
2022/07/01 11:10:56;;;;;;;;;;;;;;;15.65;71.65;98329.03;5104436;27;19919;-64
2022/07/01 11:13:25;;;;;;;;;;;;;;;15.57;72.05;98338.13;5104488;28;20031;-62
2022/07/01 11:15:53;;;;;;;;;;;;;;;15.34;72.47;98347.75;5103854;27;20348;-63
2022/07/01 11:18:22;;;;;;;;;;;;;;;15.38;73.20;98341.28;5104209;27;20018;-62
2022/07/01 11:20:53;;;;;;;;;;;;;;;15.38;72.53;98343.22;5103285;28;19923;-63
2022/07/01 11:23:21;;;;;;;;;;;;;;;15.45;73.51;98336.13;5107926;27;19919;-64
2022/07/01 11:28:41;;;;;;;;;;;;;;;15.40;73.35;98339.03;5112483;27;20254;-63
2022/07/01 11:31:10;;;;;;;;;;;;;;;15.32;73.36;98341.81;5110146;27;19920;-58
2022/07/01 11:33:39;;;;;;;;;;;;;;;15.29;72.52;98345.25;5105976;28;20366;-63
2022/07/01 11:41:49;;;;;;;;;;;;;;;15.04;73.25;98334.09;5104818;28;19928;-63
2022/07/01 11:47:23;;;;;;;;;;;;;;;15.09;73.23;98344.88;5105040;27;20012;-63
2022/07/01 11:49:51;;;;;;;;;;;;;;;15.16;73.29;98350.59;5100018;27;19919;-61
2022/07/01 11:52:21;;;;;;;;;;;;;;;15.14;73.58;98347.41;5099249;27;19932;-64
2022/07/01 11:54:50;;;;;;;;;;;;;;;15.26;72.82;98348.63;5104083;27;19923;-64
2022/07/01 11:57:19;;;;;;;;;;;;;;;15.24;73.02;98339.97;5107850;27;19920;-61
2022/07/01 11:59:47;;;;;;;;;;;;;;;15.24;72.04;98329.81;5111019;27;19964;-62
2022/07/01 12:02:16;;;;;;;;;;;;;;;15.18;72.69;98331.94;5106309;27;20313;-61
2022/07/01 12:04:44;;;;;;;;;;;;;;;15.28;72.93;98330.72;5109017;27;20380;-62
2022/07/01 12:07:13;;;;;;;;;;;;;;;15.32;72.12;98337.16;5105065;27;19927;-60
2022/07/01 12:09:43;;;;;;;;;;;;;;;15.26;72.57;98343.97;5083870;28;19920;-62
2022/07/01 12:12:15;;;;;;;;;;;;;;;15.23;72.32;98354.75;5104676;27;19931;-61
2022/07/01 12:14:49;;;;;;;;;;;;;;;15.22;71.93;98356.69;5110735;27;19924;-61
2022/07/01 12:17:18;;;;;;;;;;;;;;;15.23;72.87;98354.75;5101777;27;19932;-62
2022/07/01 12:19:48;;;;;;;;;;;;;;;15.10;73.02;98341.00;5096906;27;19939;-61
2022/07/01 12:22:18;;;;;;;;;;;;;;;15.03;71.78;98340.72;5112776;27;19919;-62
2022/07/01 12:24:47;;;;;;;;;;;;;;;15.18;72.19;98336.63;5104146;27;19924;-62
2022/07/01 12:27:15;;;;;;;;;;;;;;;15.10;72.64;98330.03;5109323;27;20316;-61
2022/07/01 12:29:51;;;;;;;;;;;;;;;15.18;71.78;98339.34;5109820;27;19920;-62
2022/07/01 12:32:23;;;;;;;;;;;;;;;15.15;72.53;98327.13;5113796;27;20027;-61
2022/07/01 12:34:51;;;;;;;;;;;;;;;15.02;73.03;98324.59;5106922;28;19920;-62
2022/07/01 12:37:26;;;;;;;;;;;;;;;15.09;73.36;98328.44;5094543;28;19985;-61
2022/07/01 12:39:56;;;;;;;;;;;;;;;15.04;73.83;98325.91;5103301;27;20360;-59
2022/07/01 12:42:25;;;;;;;;;;;;;;;14.99;73.63;98317.06;5105506;27;20248;-61
2022/07/01 12:44:53;;;;;;;;;;;;;;;15.13;73.88;98315.72;5103830;27;20017;-60
2022/07/01 12:47:28;;;;;;;;;;;;;;;15.10;73.69;98318.28;5101623;28;19920;-61
2022/07/01 12:50:15;;;;;;;;;;;;;;;15.08;73.62;98321.38;5092372;28;19986;-60
2022/07/01 12:52:46;;;;;;;;;;;;;;;15.10;73.60;98330.03;5108724;27;19924;-59
2022/07/01 12:55:17;;;;;;;;;;;;;;;15.08;73.50;98326.84;5106652;28;20014;-61
2022/07/01 12:57:46;;;;;;;;;;;;;;;15.11;73.76;98348.06;5114962;27;19957;-61
2022/07/01 13:00:16;;;;;;;;;;;;;;;15.13;73.80;98356.75;5108600;27;20550;-61
2022/07/01 13:02:44;;;;;;;;;;;;;;;15.07;73.73;98371.72;5117549;27;19951;-61
2022/07/01 13:05:12;;;;;;;;;;;;;;;14.93;73.42;98382.91;5103855;27;19939;-61
2022/07/01 13:07:40;;;;;;;;;;;;;;;14.78;74.39;98404.53;5099334;28;19919;-63
2022/07/01 13:10:12;;;;;;;;;;;;;;;14.68;74.64;98411.97;5093716;28;19924;-60
2022/07/01 13:12:42;;;;;;;;;;;;;;;14.61;74.04;98419.06;5103947;27;19931;-63
2022/07/01 13:15:10;;;;;;;;;;;;;;;14.53;74.28;98433.53;5103218;27;19988;-60
2022/07/01 13:17:39;;;;;;;;;;;;;;;14.49;74.20;98444.34;5103415;27;19923;-61
2022/07/01 13:20:08;;;;;;;;;;;;;;;14.45;74.68;98451.53;5104511;27;19919;-63
2022/07/01 13:22:37;;;;;;;;;;;;;;;14.45;75.79;98461.69;5104795;27;19920;-61
2022/07/01 13:25:06;;;;;;;;;;;;;;;14.41;76.11;98442.38;5102305;27;20113;-61
2022/07/01 13:27:34;;;;;;;;;;;;;;;14.53;76.70;98428.88;5106338;28;19993;-62
2022/07/01 13:30:04;;;;;;;;;;;;;;;14.62;76.93;98437.06;5116218;27;20259;-60
2022/07/01 13:32:32;;;;;;;;;;;;;;;14.66;77.43;98441.56;5104869;28;20006;-60
2022/07/01 13:35:02;;;;;;;;;;;;;;;14.72;77.24;98449.59;5076543;28;19982;-62
2022/07/01 13:37:30;;;;;;;;;;;;;;;14.64;75.57;98438.34;5061018;28;20022;-59